sensor_id;sensor_type;location;lat;lon;timestamp;P1;durP1;ratioP1;P2;durP2;ratioP2
76051;SDS011;64751;48.708;9.710;2024-01-11T00:01:44;4.55;;;3.47;;
76051;SDS011;64751;48.708;9.710;2024-01-11T00:04:12;4.97;;;4.03;;
76051;SDS011;64751;48.708;9.710;2024-01-11T00:09:12;4.07;;;3.35;;
76051;SDS011;64751;48.708;9.710;2024-01-11T00:11:45;3.53;;;3.13;;
76051;SDS011;64751;48.708;9.710;2024-01-11T00:14:18;4.07;;;3.10;;
76051;SDS011;64751;48.708;9.710;2024-01-11T00:16:51;4.88;;;3.55;;
76051;SDS011;64751;48.708;9.710;2024-01-11T00:19:24;5.35;;;4.00;;
76051;SDS011;64751;48.708;9.710;2024-01-11T00:21:56;4.80;;;3.95;;
76051;SDS011;64751;48.708;9.710;2024-01-11T00:24:29;4.63;;;3.92;;
76051;SDS011;64751;48.708;9.710;2024-01-11T00:27:01;6.63;;;4.80;;
76051;SDS011;64751;48.708;9.710;2024-01-11T00:29:35;5.50;;;4.22;;
76051;SDS011;64751;48.708;9.710;2024-01-11T00:32:08;4.40;;;3.72;;
76051;SDS011;64751;48.708;9.710;2024-01-11T00:34:35;4.55;;;3.45;;
76051;SDS011;64751;48.708;9.710;2024-01-11T00:37:03;4.53;;;3.72;;
76051;SDS011;64751;48.708;9.710;2024-01-11T00:39:35;5.28;;;3.90;;
76051;SDS011;64751;48.708;9.710;2024-01-11T00:42:03;4.65;;;3.83;;
76051;SDS011;64751;48.708;9.710;2024-01-11T00:44:38;4.40;;;3.58;;
76051;SDS011;64751;48.708;9.710;2024-01-11T00:47:06;4.28;;;3.70;;
76051;SDS011;64751;48.708;9.710;2024-01-11T00:49:34;4.90;;;3.50;;
76051;SDS011;64751;48.708;9.710;2024-01-11T00:52:02;5.65;;;3.40;;
76051;SDS011;64751;48.708;9.710;2024-01-11T00:54:30;5.68;;;3.88;;
76051;SDS011;64751;48.708;9.710;2024-01-11T00:56:58;5.05;;;4.22;;
76051;SDS011;64751;48.708;9.710;2024-01-11T00:59:30;4.03;;;3.30;;
76051;SDS011;64751;48.708;9.710;2024-01-11T01:04:32;4.47;;;3.63;;
76051;SDS011;64751;48.708;9.710;2024-01-11T01:09:32;3.70;;;3.08;;
76051;SDS011;64751;48.708;9.710;2024-01-11T01:12:07;3.60;;;3.00;;
76051;SDS011;64751;48.708;9.710;2024-01-11T01:14:39;4.97;;;3.88;;
76051;SDS011;64751;48.708;9.710;2024-01-11T01:17:13;5.00;;;3.65;;
76051;SDS011;64751;48.708;9.710;2024-01-11T01:19:41;3.83;;;3.10;;
76051;SDS011;64751;48.708;9.710;2024-01-11T01:22:13;4.40;;;3.08;;
76051;SDS011;64751;48.708;9.710;2024-01-11T01:24:42;5.03;;;3.70;;
76051;SDS011;64751;48.708;9.710;2024-01-11T01:27:15;4.25;;;3.55;;
76051;SDS011;64751;48.708;9.710;2024-01-11T01:29:43;3.92;;;3.53;;
76051;SDS011;64751;48.708;9.710;2024-01-11T01:32:17;4.60;;;4.03;;
76051;SDS011;64751;48.708;9.710;2024-01-11T01:34:45;5.15;;;3.70;;
76051;SDS011;64751;48.708;9.710;2024-01-11T01:37:12;4.82;;;3.70;;
76051;SDS011;64751;48.708;9.710;2024-01-11T01:39:40;5.93;;;3.78;;
76051;SDS011;64751;48.708;9.710;2024-01-11T01:42:08;4.10;;;3.20;;
76051;SDS011;64751;48.708;9.710;2024-01-11T01:44:40;4.97;;;3.63;;
76051;SDS011;64751;48.708;9.710;2024-01-11T01:47:08;3.75;;;3.03;;
76051;SDS011;64751;48.708;9.710;2024-01-11T01:49:43;5.25;;;3.30;;
76051;SDS011;64751;48.708;9.710;2024-01-11T01:52:13;4.40;;;3.70;;
76051;SDS011;64751;48.708;9.710;2024-01-11T01:54:48;4.50;;;3.35;;
76051;SDS011;64751;48.708;9.710;2024-01-11T01:57:16;4.43;;;3.58;;
76051;SDS011;64751;48.708;9.710;2024-01-11T01:59:52;5.30;;;3.80;;
76051;SDS011;64751;48.708;9.710;2024-01-11T02:02:25;4.65;;;3.65;;
76051;SDS011;64751;48.708;9.710;2024-01-11T02:04:55;4.57;;;3.92;;
76051;SDS011;64751;48.708;9.710;2024-01-11T02:07:24;4.63;;;3.75;;
76051;SDS011;64751;48.708;9.710;2024-01-11T02:12:25;3.75;;;3.13;;
76051;SDS011;64751;48.708;9.710;2024-01-11T02:14:57;3.83;;;3.42;;
76051;SDS011;64751;48.708;9.710;2024-01-11T02:17:31;5.45;;;4.20;;
76051;SDS011;64751;48.708;9.710;2024-01-11T02:20:01;5.32;;;3.90;;
76051;SDS011;64751;48.708;9.710;2024-01-11T02:22:35;4.80;;;3.85;;
76051;SDS011;64751;48.708;9.710;2024-01-11T02:25:12;4.07;;;3.08;;
76051;SDS011;64751;48.708;9.710;2024-01-11T02:27:46;3.95;;;3.35;;
76051;SDS011;64751;48.708;9.710;2024-01-11T02:30:15;4.55;;;3.30;;
76051;SDS011;64751;48.708;9.710;2024-01-11T02:32:48;4.22;;;3.33;;
76051;SDS011;64751;48.708;9.710;2024-01-11T02:35:17;3.83;;;3.30;;
76051;SDS011;64751;48.708;9.710;2024-01-11T02:37:45;4.57;;;3.20;;
76051;SDS011;64751;48.708;9.710;2024-01-11T02:40:15;5.00;;;4.28;;
76051;SDS011;64751;48.708;9.710;2024-01-11T02:42:42;4.97;;;3.40;;
76051;SDS011;64751;48.708;9.710;2024-01-11T02:45:15;4.18;;;3.33;;
76051;SDS011;64751;48.708;9.710;2024-01-11T02:47:47;4.78;;;3.72;;
76051;SDS011;64751;48.708;9.710;2024-01-11T02:50:15;5.90;;;3.72;;
76051;SDS011;64751;48.708;9.710;2024-01-11T02:52:42;4.40;;;3.45;;
76051;SDS011;64751;48.708;9.710;2024-01-11T02:55:10;4.45;;;3.50;;
76051;SDS011;64751;48.708;9.710;2024-01-11T02:57:43;4.13;;;3.20;;
76051;SDS011;64751;48.708;9.710;2024-01-11T03:00:16;4.05;;;3.50;;
76051;SDS011;64751;48.708;9.710;2024-01-11T03:02:49;5.28;;;3.65;;
76051;SDS011;64751;48.708;9.710;2024-01-11T03:05:17;4.53;;;3.40;;
76051;SDS011;64751;48.708;9.710;2024-01-11T03:07:44;4.30;;;3.25;;
76051;SDS011;64751;48.708;9.710;2024-01-11T03:10:11;4.03;;;3.53;;
76051;SDS011;64751;48.708;9.710;2024-01-11T03:12:45;4.05;;;2.92;;
76051;SDS011;64751;48.708;9.710;2024-01-11T03:15:15;4.50;;;3.40;;
76051;SDS011;64751;48.708;9.710;2024-01-11T03:17:47;4.40;;;3.30;;
76051;SDS011;64751;48.708;9.710;2024-01-11T03:20:15;4.43;;;3.60;;
76051;SDS011;64751;48.708;9.710;2024-01-11T03:22:46;4.80;;;3.35;;
76051;SDS011;64751;48.708;9.710;2024-01-11T03:25:18;4.20;;;3.00;;
76051;SDS011;64751;48.708;9.710;2024-01-11T03:27:52;3.47;;;3.08;;
76051;SDS011;64751;48.708;9.710;2024-01-11T03:30:19;4.78;;;3.28;;
76051;SDS011;64751;48.708;9.710;2024-01-11T03:32:47;3.92;;;3.25;;
76051;SDS011;64751;48.708;9.710;2024-01-11T03:35:14;5.13;;;3.63;;
76051;SDS011;64751;48.708;9.710;2024-01-11T03:37:47;5.57;;;3.50;;
76051;SDS011;64751;48.708;9.710;2024-01-11T03:40:19;4.63;;;3.47;;
76051;SDS011;64751;48.708;9.710;2024-01-11T03:42:47;4.28;;;3.03;;
76051;SDS011;64751;48.708;9.710;2024-01-11T03:45:20;3.78;;;3.30;;
76051;SDS011;64751;48.708;9.710;2024-01-11T03:47:53;5.25;;;3.33;;
76051;SDS011;64751;48.708;9.710;2024-01-11T03:50:25;5.10;;;3.35;;
76051;SDS011;64751;48.708;9.710;2024-01-11T03:52:53;4.03;;;3.03;;
76051;SDS011;64751;48.708;9.710;2024-01-11T03:55:20;4.63;;;3.55;;
76051;SDS011;64751;48.708;9.710;2024-01-11T03:57:48;4.40;;;3.72;;
76051;SDS011;64751;48.708;9.710;2024-01-11T04:00:15;3.47;;;3.10;;
76051;SDS011;64751;48.708;9.710;2024-01-11T04:02:44;3.95;;;3.13;;
76051;SDS011;64751;48.708;9.710;2024-01-11T04:05:12;5.13;;;3.53;;
76051;SDS011;64751;48.708;9.710;2024-01-11T04:07:40;4.60;;;3.88;;
76051;SDS011;64751;48.708;9.710;2024-01-11T04:10:14;4.68;;;4.18;;
76051;SDS011;64751;48.708;9.710;2024-01-11T04:12:42;4.57;;;3.83;;
76051;SDS011;64751;48.708;9.710;2024-01-11T04:15:15;5.55;;;3.33;;
76051;SDS011;64751;48.708;9.710;2024-01-11T04:17:42;5.00;;;3.83;;
76051;SDS011;64751;48.708;9.710;2024-01-11T04:20:16;4.10;;;3.63;;
76051;SDS011;64751;48.708;9.710;2024-01-11T04:22:44;4.90;;;3.92;;
76051;SDS011;64751;48.708;9.710;2024-01-11T04:25:11;4.15;;;3.33;;
76051;SDS011;64751;48.708;9.710;2024-01-11T04:27:39;4.78;;;3.63;;
76051;SDS011;64751;48.708;9.710;2024-01-11T04:32:45;4.05;;;3.00;;
76051;SDS011;64751;48.708;9.710;2024-01-11T04:35:12;4.07;;;3.67;;
76051;SDS011;64751;48.708;9.710;2024-01-11T04:37:40;4.72;;;3.72;;
76051;SDS011;64751;48.708;9.710;2024-01-11T04:40:12;3.92;;;3.17;;
76051;SDS011;64751;48.708;9.710;2024-01-11T04:42:40;5.38;;;3.13;;
76051;SDS011;64751;48.708;9.710;2024-01-11T04:45:08;4.82;;;3.60;;
76051;SDS011;64751;48.708;9.710;2024-01-11T04:47:36;3.45;;;3.13;;
76051;SDS011;64751;48.708;9.710;2024-01-11T04:52:37;4.00;;;2.83;;
76051;SDS011;64751;48.708;9.710;2024-01-11T04:55:05;4.00;;;3.00;;
76051;SDS011;64751;48.708;9.710;2024-01-11T04:57:37;3.67;;;2.90;;
76051;SDS011;64751;48.708;9.710;2024-01-11T05:00:05;4.22;;;3.10;;
76051;SDS011;64751;48.708;9.710;2024-01-11T05:02:34;3.78;;;3.15;;
76051;SDS011;64751;48.708;9.710;2024-01-11T05:05:06;3.25;;;2.90;;
76051;SDS011;64751;48.708;9.710;2024-01-11T05:07:35;4.07;;;3.05;;
76051;SDS011;64751;48.708;9.710;2024-01-11T05:10:03;4.63;;;3.38;;
76051;SDS011;64751;48.708;9.710;2024-01-11T05:12:36;4.25;;;3.38;;
76051;SDS011;64751;48.708;9.710;2024-01-11T05:15:09;3.78;;;3.03;;
76051;SDS011;64751;48.708;9.710;2024-01-11T05:17:42;4.18;;;3.28;;
76051;SDS011;64751;48.708;9.710;2024-01-11T05:20:14;4.47;;;3.67;;
76051;SDS011;64751;48.708;9.710;2024-01-11T05:22:45;5.60;;;3.70;;
76051;SDS011;64751;48.708;9.710;2024-01-11T05:25:12;5.22;;;3.53;;
76051;SDS011;64751;48.708;9.710;2024-01-11T05:27:40;3.97;;;3.40;;
76051;SDS011;64751;48.708;9.710;2024-01-11T05:30:08;4.35;;;3.53;;
76051;SDS011;64751;48.708;9.710;2024-01-11T05:32:36;4.10;;;3.30;;
76051;SDS011;64751;48.708;9.710;2024-01-11T05:35:09;4.53;;;3.42;;
76051;SDS011;64751;48.708;9.710;2024-01-11T05:37:36;4.47;;;3.58;;
76051;SDS011;64751;48.708;9.710;2024-01-11T05:40:10;3.80;;;3.28;;
76051;SDS011;64751;48.708;9.710;2024-01-11T05:42:38;4.00;;;3.17;;
76051;SDS011;64751;48.708;9.710;2024-01-11T05:45:06;3.83;;;2.85;;
76051;SDS011;64751;48.708;9.710;2024-01-11T05:47:33;3.88;;;3.25;;
76051;SDS011;64751;48.708;9.710;2024-01-11T05:50:01;4.30;;;3.05;;
76051;SDS011;64751;48.708;9.710;2024-01-11T05:52:28;4.20;;;3.25;;
76051;SDS011;64751;48.708;9.710;2024-01-11T05:55:00;3.70;;;3.00;;
76051;SDS011;64751;48.708;9.710;2024-01-11T05:57:34;4.13;;;3.20;;
76051;SDS011;64751;48.708;9.710;2024-01-11T06:00:02;4.00;;;3.47;;
76051;SDS011;64751;48.708;9.710;2024-01-11T06:02:37;4.25;;;3.40;;
76051;SDS011;64751;48.708;9.710;2024-01-11T06:05:05;4.35;;;3.22;;
76051;SDS011;64751;48.708;9.710;2024-01-11T06:07:35;4.20;;;3.15;;
76051;SDS011;64751;48.708;9.710;2024-01-11T06:10:03;4.22;;;3.40;;
76051;SDS011;64751;48.708;9.710;2024-01-11T06:12:38;4.00;;;3.00;;
76051;SDS011;64751;48.708;9.710;2024-01-11T06:15:07;4.40;;;3.35;;
76051;SDS011;64751;48.708;9.710;2024-01-11T06:17:35;3.42;;;2.67;;
76051;SDS011;64751;48.708;9.710;2024-01-11T06:20:08;5.10;;;3.65;;
76051;SDS011;64751;48.708;9.710;2024-01-11T06:22:37;5.10;;;3.22;;
76051;SDS011;64751;48.708;9.710;2024-01-11T06:25:05;3.92;;;3.15;;
76051;SDS011;64751;48.708;9.710;2024-01-11T06:27:32;4.35;;;3.45;;
76051;SDS011;64751;48.708;9.710;2024-01-11T06:30:01;3.90;;;3.03;;
76051;SDS011;64751;48.708;9.710;2024-01-11T06:32:35;5.13;;;3.50;;
76051;SDS011;64751;48.708;9.710;2024-01-11T06:35:07;4.13;;;3.25;;
76051;SDS011;64751;48.708;9.710;2024-01-11T06:37:40;4.07;;;3.05;;
76051;SDS011;64751;48.708;9.710;2024-01-11T06:40:08;3.53;;;3.22;;
76051;SDS011;64751;48.708;9.710;2024-01-11T06:42:40;4.10;;;3.13;;
76051;SDS011;64751;48.708;9.710;2024-01-11T06:45:10;3.65;;;3.03;;
76051;SDS011;64751;48.708;9.710;2024-01-11T06:47:42;3.15;;;2.80;;
76051;SDS011;64751;48.708;9.710;2024-01-11T06:50:16;4.05;;;3.42;;
76051;SDS011;64751;48.708;9.710;2024-01-11T06:52:49;4.47;;;3.50;;
76051;SDS011;64751;48.708;9.710;2024-01-11T06:55:17;4.15;;;2.85;;
76051;SDS011;64751;48.708;9.710;2024-01-11T06:57:50;3.05;;;2.75;;
76051;SDS011;64751;48.708;9.710;2024-01-11T07:00:19;3.47;;;2.95;;
76051;SDS011;64751;48.708;9.710;2024-01-11T07:02:52;3.40;;;2.55;;
76051;SDS011;64751;48.708;9.710;2024-01-11T07:05:25;4.75;;;2.95;;
76051;SDS011;64751;48.708;9.710;2024-01-11T07:07:52;5.20;;;3.60;;
76051;SDS011;64751;48.708;9.710;2024-01-11T07:10:25;5.07;;;3.42;;
76051;SDS011;64751;48.708;9.710;2024-01-11T07:12:52;4.22;;;3.83;;
76051;SDS011;64751;48.708;9.710;2024-01-11T07:15:26;4.25;;;3.08;;
76051;SDS011;64751;48.708;9.710;2024-01-11T07:17:59;3.67;;;2.92;;
76051;SDS011;64751;48.708;9.710;2024-01-11T07:20:31;5.50;;;3.33;;
76051;SDS011;64751;48.708;9.710;2024-01-11T07:22:59;4.68;;;3.58;;
76051;SDS011;64751;48.708;9.710;2024-01-11T07:25:26;4.32;;;3.25;;
76051;SDS011;64751;48.708;9.710;2024-01-11T07:27:59;3.85;;;3.10;;
76051;SDS011;64751;48.708;9.710;2024-01-11T07:30:27;4.32;;;3.40;;
76051;SDS011;64751;48.708;9.710;2024-01-11T07:33:00;4.00;;;3.08;;
76051;SDS011;64751;48.708;9.710;2024-01-11T07:35:27;4.80;;;3.35;;
76051;SDS011;64751;48.708;9.710;2024-01-11T07:37:55;4.20;;;3.50;;
76051;SDS011;64751;48.708;9.710;2024-01-11T07:40:23;3.65;;;2.80;;
76051;SDS011;64751;48.708;9.710;2024-01-11T07:42:55;4.15;;;3.28;;
76051;SDS011;64751;48.708;9.710;2024-01-11T07:45:29;4.07;;;3.17;;
76051;SDS011;64751;48.708;9.710;2024-01-11T07:47:57;4.25;;;3.85;;
76051;SDS011;64751;48.708;9.710;2024-01-11T07:50:30;5.38;;;3.50;;
76051;SDS011;64751;48.708;9.710;2024-01-11T07:52:58;4.10;;;3.28;;
76051;SDS011;64751;48.708;9.710;2024-01-11T07:55:30;4.85;;;3.75;;
76051;SDS011;64751;48.708;9.710;2024-01-11T07:58:04;4.07;;;2.97;;
76051;SDS011;64751;48.708;9.710;2024-01-11T08:00:37;3.60;;;3.30;;
76051;SDS011;64751;48.708;9.710;2024-01-11T08:03:10;4.18;;;3.33;;
76051;SDS011;64751;48.708;9.710;2024-01-11T08:05:42;5.55;;;4.00;;
76051;SDS011;64751;48.708;9.710;2024-01-11T08:10:42;3.70;;;3.25;;
76051;SDS011;64751;48.708;9.710;2024-01-11T08:13:15;3.95;;;3.47;;
76051;SDS011;64751;48.708;9.710;2024-01-11T08:15:45;4.80;;;3.83;;
76051;SDS011;64751;48.708;9.710;2024-01-11T08:18:12;4.65;;;3.60;;
76051;SDS011;64751;48.708;9.710;2024-01-11T08:20:46;4.20;;;3.30;;
76051;SDS011;64751;48.708;9.710;2024-01-11T08:23:19;4.72;;;3.90;;
76051;SDS011;64751;48.708;9.710;2024-01-11T08:25:46;4.50;;;3.47;;
76051;SDS011;64751;48.708;9.710;2024-01-11T08:28:14;4.65;;;3.75;;
76051;SDS011;64751;48.708;9.710;2024-01-11T08:30:41;4.78;;;3.50;;
76051;SDS011;64751;48.708;9.710;2024-01-11T08:33:15;4.63;;;3.72;;
76051;SDS011;64751;48.708;9.710;2024-01-11T08:35:43;4.43;;;3.42;;
76051;SDS011;64751;48.708;9.710;2024-01-11T08:38:15;4.45;;;3.92;;
76051;SDS011;64751;48.708;9.710;2024-01-11T08:40:48;4.90;;;3.72;;
76051;SDS011;64751;48.708;9.710;2024-01-11T08:43:20;4.57;;;3.90;;
76051;SDS011;64751;48.708;9.710;2024-01-11T08:45:53;4.85;;;4.13;;
76051;SDS011;64751;48.708;9.710;2024-01-11T08:48:22;5.28;;;4.28;;
76051;SDS011;64751;48.708;9.710;2024-01-11T08:50:54;4.38;;;3.80;;
76051;SDS011;64751;48.708;9.710;2024-01-11T08:53:22;5.78;;;4.18;;
76051;SDS011;64751;48.708;9.710;2024-01-11T08:55:54;5.82;;;4.00;;
76051;SDS011;64751;48.708;9.710;2024-01-11T08:58:26;5.70;;;4.38;;
76051;SDS011;64751;48.708;9.710;2024-01-11T09:00:59;4.85;;;3.75;;
76051;SDS011;64751;48.708;9.710;2024-01-11T09:03:33;6.25;;;4.40;;
76051;SDS011;64751;48.708;9.710;2024-01-11T09:06:05;5.60;;;4.97;;
76051;SDS011;64751;48.708;9.710;2024-01-11T09:08:37;4.90;;;4.40;;
76051;SDS011;64751;48.708;9.710;2024-01-11T09:11:12;5.88;;;4.68;;
76051;SDS011;64751;48.708;9.710;2024-01-11T09:13:44;5.43;;;4.60;;
76051;SDS011;64751;48.708;9.710;2024-01-11T09:16:17;5.50;;;4.88;;
76051;SDS011;64751;48.708;9.710;2024-01-11T09:18:46;6.20;;;4.68;;
76051;SDS011;64751;48.708;9.710;2024-01-11T09:21:19;5.00;;;4.47;;
76051;SDS011;64751;48.708;9.710;2024-01-11T09:23:46;5.28;;;4.32;;
76051;SDS011;64751;48.708;9.710;2024-01-11T09:26:13;5.72;;;4.72;;
76051;SDS011;64751;48.708;9.710;2024-01-11T09:28:41;4.40;;;3.85;;
76051;SDS011;64751;48.708;9.710;2024-01-11T09:31:08;5.45;;;4.70;;
76051;SDS011;64751;48.708;9.710;2024-01-11T09:33:41;6.40;;;4.55;;
76051;SDS011;64751;48.708;9.710;2024-01-11T09:36:12;5.50;;;4.50;;
76051;SDS011;64751;48.708;9.710;2024-01-11T09:38:45;5.90;;;5.05;;
76051;SDS011;64751;48.708;9.710;2024-01-11T09:41:19;5.53;;;4.40;;
76051;SDS011;64751;48.708;9.710;2024-01-11T09:43:51;6.13;;;4.28;;
76051;SDS011;64751;48.708;9.710;2024-01-11T09:46:26;5.47;;;4.68;;
76051;SDS011;64751;48.708;9.710;2024-01-11T09:48:55;4.72;;;4.22;;
76051;SDS011;64751;48.708;9.710;2024-01-11T09:51:30;4.50;;;4.10;;
76051;SDS011;64751;48.708;9.710;2024-01-11T09:54:07;5.47;;;4.53;;
76051;SDS011;64751;48.708;9.710;2024-01-11T09:56:37;5.47;;;4.72;;
76051;SDS011;64751;48.708;9.710;2024-01-11T09:59:05;5.60;;;4.85;;
76051;SDS011;64751;48.708;9.710;2024-01-11T10:01:36;5.05;;;4.47;;
76051;SDS011;64751;48.708;9.710;2024-01-11T10:04:03;4.72;;;4.25;;
76051;SDS011;64751;48.708;9.710;2024-01-11T10:06:33;5.22;;;4.47;;
76051;SDS011;64751;48.708;9.710;2024-01-11T10:09:05;5.47;;;4.82;;
76051;SDS011;64751;48.708;9.710;2024-01-11T10:11:40;5.10;;;4.60;;
76051;SDS011;64751;48.708;9.710;2024-01-11T10:16:45;5.10;;;4.47;;
76051;SDS011;64751;48.708;9.710;2024-01-11T10:19:21;5.47;;;4.78;;
76051;SDS011;64751;48.708;9.710;2024-01-11T10:21:55;5.78;;;4.80;;
76051;SDS011;64751;48.708;9.710;2024-01-11T10:24:27;5.53;;;4.57;;
76051;SDS011;64751;48.708;9.710;2024-01-11T10:27:00;5.85;;;4.43;;
76051;SDS011;64751;48.708;9.710;2024-01-11T10:29:34;5.57;;;4.75;;
76051;SDS011;64751;48.708;9.710;2024-01-11T10:32:03;5.72;;;5.00;;
76051;SDS011;64751;48.708;9.710;2024-01-11T10:34:31;5.30;;;4.80;;
76051;SDS011;64751;48.708;9.710;2024-01-11T10:37:05;5.40;;;4.50;;
76051;SDS011;64751;48.708;9.710;2024-01-11T10:39:38;5.07;;;4.53;;
76051;SDS011;64751;48.708;9.710;2024-01-11T10:42:06;5.07;;;4.53;;
76051;SDS011;64751;48.708;9.710;2024-01-11T10:44:41;6.40;;;5.10;;
76051;SDS011;64751;48.708;9.710;2024-01-11T10:47:21;5.10;;;4.60;;
76051;SDS011;64751;48.708;9.710;2024-01-11T10:49:56;5.70;;;5.10;;
76051;SDS011;64751;48.708;9.710;2024-01-11T10:52:28;5.82;;;4.88;;
76051;SDS011;64751;48.708;9.710;2024-01-11T10:54:59;5.88;;;5.25;;
76051;SDS011;64751;48.708;9.710;2024-01-11T10:57:33;5.68;;;4.68;;
76051;SDS011;64751;48.708;9.710;2024-01-11T11:00:01;5.90;;;4.80;;
76051;SDS011;64751;48.708;9.710;2024-01-11T11:02:36;5.15;;;4.65;;
76051;SDS011;64751;48.708;9.710;2024-01-11T11:05:04;5.68;;;4.25;;
76051;SDS011;64751;48.708;9.710;2024-01-11T11:07:37;6.55;;;5.13;;
76051;SDS011;64751;48.708;9.710;2024-01-11T11:10:06;6.30;;;5.32;;
76051;SDS011;64751;48.708;9.710;2024-01-11T11:12:36;5.32;;;4.32;;
76051;SDS011;64751;48.708;9.710;2024-01-11T11:15:06;5.65;;;4.20;;
76051;SDS011;64751;48.708;9.710;2024-01-11T11:17:42;6.20;;;5.07;;
76051;SDS011;64751;48.708;9.710;2024-01-11T11:20:11;5.75;;;5.15;;
76051;SDS011;64751;48.708;9.710;2024-01-11T11:22:49;6.38;;;5.03;;
76051;SDS011;64751;48.708;9.710;2024-01-11T11:25:30;5.13;;;4.15;;
76051;SDS011;64751;48.708;9.710;2024-01-11T11:30:31;7.32;;;4.18;;
76051;SDS011;64751;48.708;9.710;2024-01-11T11:33:07;4.95;;;4.43;;
76051;SDS011;64751;48.708;9.710;2024-01-11T11:35:36;5.10;;;4.40;;
76051;SDS011;64751;48.708;9.710;2024-01-11T11:38:06;5.03;;;4.53;;
76051;SDS011;64751;48.708;9.710;2024-01-11T11:40:33;5.55;;;4.95;;
76051;SDS011;64751;48.708;9.710;2024-01-11T11:43:05;5.55;;;5.05;;
76051;SDS011;64751;48.708;9.710;2024-01-11T11:45:38;5.88;;;4.97;;
76051;SDS011;64751;48.708;9.710;2024-01-11T11:51:22;4.88;;;4.22;;
76051;SDS011;64751;48.708;9.710;2024-01-11T11:53:52;5.03;;;4.25;;
76051;SDS011;64751;48.708;9.710;2024-01-11T11:56:20;5.38;;;4.68;;
76051;SDS011;64751;48.708;9.710;2024-01-11T11:58:49;5.35;;;4.53;;
76051;SDS011;64751;48.708;9.710;2024-01-11T12:01:18;5.30;;;4.50;;
76051;SDS011;64751;48.708;9.710;2024-01-11T12:03:52;5.25;;;4.55;;
76051;SDS011;64751;48.708;9.710;2024-01-11T12:06:24;5.70;;;4.85;;
76051;SDS011;64751;48.708;9.710;2024-01-11T12:08:59;5.90;;;5.00;;
76051;SDS011;64751;48.708;9.710;2024-01-11T12:11:32;5.45;;;4.45;;
76051;SDS011;64751;48.708;9.710;2024-01-11T12:13:59;5.22;;;4.65;;
76051;SDS011;64751;48.708;9.710;2024-01-11T12:16:32;5.43;;;4.93;;
76051;SDS011;64751;48.708;9.710;2024-01-11T12:18:59;5.95;;;5.00;;
76051;SDS011;64751;48.708;9.710;2024-01-11T12:21:32;5.13;;;4.63;;
76051;SDS011;64751;48.708;9.710;2024-01-11T12:24:06;5.75;;;4.78;;
76051;SDS011;64751;48.708;9.710;2024-01-11T12:26:38;4.93;;;4.15;;
76051;SDS011;64751;48.708;9.710;2024-01-11T12:31:45;5.75;;;4.40;;
76051;SDS011;64751;48.708;9.710;2024-01-11T12:34:17;5.00;;;4.50;;
76051;SDS011;64751;48.708;9.710;2024-01-11T12:36:50;5.10;;;4.60;;
76051;SDS011;64751;48.708;9.710;2024-01-11T12:39:26;5.30;;;4.65;;
76051;SDS011;64751;48.708;9.710;2024-01-11T12:41:58;5.18;;;4.22;;
76051;SDS011;64751;48.708;9.710;2024-01-11T12:44:31;5.22;;;4.72;;
76051;SDS011;64751;48.708;9.710;2024-01-11T12:46:59;5.43;;;4.93;;
76051;SDS011;64751;48.708;9.710;2024-01-11T12:49:31;6.07;;;4.53;;
76051;SDS011;64751;48.708;9.710;2024-01-11T12:51:59;5.18;;;4.60;;
76051;SDS011;64751;48.708;9.710;2024-01-11T12:54:28;5.63;;;5.13;;
76051;SDS011;64751;48.708;9.710;2024-01-11T12:57:00;5.75;;;4.95;;
76051;SDS011;64751;48.708;9.710;2024-01-11T12:59:33;5.13;;;4.28;;
76051;SDS011;64751;48.708;9.710;2024-01-11T13:04:33;4.80;;;4.13;;
76051;SDS011;64751;48.708;9.710;2024-01-11T13:07:06;5.97;;;4.70;;
76051;SDS011;64751;48.708;9.710;2024-01-11T13:09:40;5.18;;;4.68;;
76051;SDS011;64751;48.708;9.710;2024-01-11T13:12:13;4.97;;;4.35;;
76051;SDS011;64751;48.708;9.710;2024-01-11T13:14:45;5.00;;;4.50;;
76051;SDS011;64751;48.708;9.710;2024-01-11T13:17:18;5.40;;;4.90;;
76051;SDS011;64751;48.708;9.710;2024-01-11T13:19:51;5.50;;;4.28;;
76051;SDS011;64751;48.708;9.710;2024-01-11T13:22:23;4.60;;;4.20;;
76051;SDS011;64751;48.708;9.710;2024-01-11T13:24:57;4.93;;;4.05;;
76051;SDS011;64751;48.708;9.710;2024-01-11T13:27:29;7.70;;;4.75;;
76051;SDS011;64751;48.708;9.710;2024-01-11T13:30:03;6.15;;;4.50;;
76051;SDS011;64751;48.708;9.710;2024-01-11T13:32:36;6.05;;;5.10;;
76051;SDS011;64751;48.708;9.710;2024-01-11T13:37:41;4.53;;;3.92;;
76051;SDS011;64751;48.708;9.710;2024-01-11T13:40:10;5.30;;;4.43;;
76051;SDS011;64751;48.708;9.710;2024-01-11T13:42:39;6.10;;;4.38;;
76051;SDS011;64751;48.708;9.710;2024-01-11T13:45:12;5.57;;;4.97;;
76051;SDS011;64751;48.708;9.710;2024-01-11T13:47:45;5.30;;;4.00;;
76051;SDS011;64751;48.708;9.710;2024-01-11T13:50:18;5.00;;;4.22;;
76051;SDS011;64751;48.708;9.710;2024-01-11T13:52:50;5.10;;;4.60;;
76051;SDS011;64751;48.708;9.710;2024-01-11T13:57:57;4.55;;;4.05;;
76051;SDS011;64751;48.708;9.710;2024-01-11T14:03:02;6.18;;;4.05;;
76051;SDS011;64751;48.708;9.710;2024-01-11T14:05:31;5.38;;;4.85;;
76051;SDS011;64751;48.708;9.710;2024-01-11T14:07:58;5.07;;;4.57;;
76051;SDS011;64751;48.708;9.710;2024-01-11T14:10:33;4.82;;;4.15;;
76051;SDS011;64751;48.708;9.710;2024-01-11T14:13:06;5.07;;;4.57;;
76051;SDS011;64751;48.708;9.710;2024-01-11T14:15:35;5.68;;;4.75;;
76051;SDS011;64751;48.708;9.710;2024-01-11T14:18:07;5.50;;;4.57;;
76051;SDS011;64751;48.708;9.710;2024-01-11T14:20:40;5.03;;;4.20;;
76051;SDS011;64751;48.708;9.710;2024-01-11T14:23:13;5.13;;;4.63;;
76051;SDS011;64751;48.708;9.710;2024-01-11T14:25:47;6.35;;;4.70;;
76051;SDS011;64751;48.708;9.710;2024-01-11T14:28:20;5.30;;;4.80;;
76051;SDS011;64751;48.708;9.710;2024-01-11T14:30:47;5.63;;;5.05;;
76051;SDS011;64751;48.708;9.710;2024-01-11T14:33:16;5.00;;;4.50;;
76051;SDS011;64751;48.708;9.710;2024-01-11T14:35:45;4.88;;;4.43;;
76051;SDS011;64751;48.708;9.710;2024-01-11T14:38:18;6.25;;;5.47;;
76051;SDS011;64751;48.708;9.710;2024-01-11T14:40:45;5.15;;;4.65;;
76051;SDS011;64751;48.708;9.710;2024-01-11T14:43:19;5.55;;;4.43;;
76051;SDS011;64751;48.708;9.710;2024-01-11T14:45:52;6.53;;;4.68;;
76051;SDS011;64751;48.708;9.710;2024-01-11T14:48:26;5.00;;;4.32;;
76051;SDS011;64751;48.708;9.710;2024-01-11T14:50:56;5.40;;;4.90;;
76051;SDS011;64751;48.708;9.710;2024-01-11T14:53:29;4.97;;;4.40;;
76051;SDS011;64751;48.708;9.710;2024-01-11T14:55:57;5.72;;;4.55;;
76051;SDS011;64751;48.708;9.710;2024-01-11T14:58:31;5.47;;;4.50;;
76051;SDS011;64751;48.708;9.710;2024-01-11T15:01:03;5.05;;;4.55;;
76051;SDS011;64751;48.708;9.710;2024-01-11T15:03:31;5.03;;;4.32;;
76051;SDS011;64751;48.708;9.710;2024-01-11T15:06:03;5.07;;;4.43;;
76051;SDS011;64751;48.708;9.710;2024-01-11T15:08:32;4.70;;;4.30;;
76051;SDS011;64751;48.708;9.710;2024-01-11T15:11:04;4.70;;;4.18;;
76051;SDS011;64751;48.708;9.710;2024-01-11T15:16:10;4.50;;;3.83;;
76051;SDS011;64751;48.708;9.710;2024-01-11T15:18:38;4.88;;;4.03;;
76051;SDS011;64751;48.708;9.710;2024-01-11T15:21:05;5.50;;;4.47;;
76051;SDS011;64751;48.708;9.710;2024-01-11T15:26:11;4.80;;;4.10;;
76051;SDS011;64751;48.708;9.710;2024-01-11T15:28:45;4.10;;;3.70;;
76051;SDS011;64751;48.708;9.710;2024-01-11T15:31:18;5.53;;;3.90;;
76051;SDS011;64751;48.708;9.710;2024-01-11T15:33:45;6.20;;;5.60;;
76051;SDS011;64751;48.708;9.710;2024-01-11T15:36:18;6.28;;;4.75;;
76051;SDS011;64751;48.708;9.710;2024-01-11T15:38:50;5.43;;;4.30;;
76051;SDS011;64751;48.708;9.710;2024-01-11T15:41:23;4.53;;;3.90;;
76051;SDS011;64751;48.708;9.710;2024-01-11T15:43:57;4.10;;;3.70;;
76051;SDS011;64751;48.708;9.710;2024-01-11T15:46:29;4.25;;;3.70;;
76051;SDS011;64751;48.708;9.710;2024-01-11T15:48:57;5.07;;;4.30;;
76051;SDS011;64751;48.708;9.710;2024-01-11T15:51:29;4.55;;;4.10;;
76051;SDS011;64751;48.708;9.710;2024-01-11T15:54:02;4.18;;;3.78;;